sensor_id;sensor_type;location;lat;lon;timestamp;temperature;humidity
76102;SHT30;64830;46.910;6.354;2024-01-10T00:00:36;-1.26;83.04
76102;SHT30;64830;46.910;6.354;2024-01-10T00:03:02;-1.29;82.89
76102;SHT30;64830;46.910;6.354;2024-01-10T00:05:28;-1.26;83.29
76102;SHT30;64830;46.910;6.354;2024-01-10T00:07:54;-1.24;83.60
76102;SHT30;64830;46.910;6.354;2024-01-10T00:10:19;-1.16;83.65
76102;SHT30;64830;46.910;6.354;2024-01-10T00:12:46;-1.17;83.39
76102;SHT30;64830;46.910;6.354;2024-01-10T00:15:12;-1.17;83.56
76102;SHT30;64830;46.910;6.354;2024-01-10T00:17:38;-1.17;83.97
76102;SHT30;64830;46.910;6.354;2024-01-10T00:20:06;-1.24;83.90
76102;SHT30;64830;46.910;6.354;2024-01-10T00:22:31;-1.29;83.83
76102;SHT30;64830;46.910;6.354;2024-01-10T00:24:57;-1.27;84.08
76102;SHT30;64830;46.910;6.354;2024-01-10T00:27:22;-1.21;84.07
76102;SHT30;64830;46.910;6.354;2024-01-10T00:29:47;-1.20;84.11
76102;SHT30;64830;46.910;6.354;2024-01-10T00:32:13;-1.14;84.11
76102;SHT30;64830;46.910;6.354;2024-01-10T00:34:38;-1.10;84.21
76102;SHT30;64830;46.910;6.354;2024-01-10T00:37:04;-1.06;84.26
76102;SHT30;64830;46.910;6.354;2024-01-10T00:39:29;-1.03;84.33
76102;SHT30;64830;46.910;6.354;2024-01-10T00:41:54;-1.03;84.42
76102;SHT30;64830;46.910;6.354;2024-01-10T00:44:20;-1.00;84.51
76102;SHT30;64830;46.910;6.354;2024-01-10T00:46:45;-0.97;84.42
76102;SHT30;64830;46.910;6.354;2024-01-10T00:49:11;-0.96;84.29
76102;SHT30;64830;46.910;6.354;2024-01-10T00:51:36;-0.93;84.18
76102;SHT30;64830;46.910;6.354;2024-01-10T00:54:01;-0.96;84.10
76102;SHT30;64830;46.910;6.354;2024-01-10T00:56:27;-0.93;84.02
76102;SHT30;64830;46.910;6.354;2024-01-10T00:58:52;-0.92;84.03
76102;SHT30;64830;46.910;6.354;2024-01-10T01:01:23;-0.93;84.08
76102;SHT30;64830;46.910;6.354;2024-01-10T01:03:48;-0.89;84.20
76102;SHT30;64830;46.910;6.354;2024-01-10T01:06:13;-0.89;84.27
76102;SHT30;64830;46.910;6.354;2024-01-10T01:08:39;-0.86;84.28
76102;SHT30;64830;46.910;6.354;2024-01-10T01:11:05;-0.86;84.19
76102;SHT30;64830;46.910;6.354;2024-01-10T01:13:31;-0.86;84.03
76102;SHT30;64830;46.910;6.354;2024-01-10T01:15:56;-0.88;83.94
76102;SHT30;64830;46.910;6.354;2024-01-10T01:18:21;-0.88;83.88
76102;SHT30;64830;46.910;6.354;2024-01-10T01:20:47;-0.89;84.07
76102;SHT30;64830;46.910;6.354;2024-01-10T01:23:14;-0.91;84.26
76102;SHT30;64830;46.910;6.354;2024-01-10T01:25:39;-0.93;84.38
76102;SHT30;64830;46.910;6.354;2024-01-10T01:28:05;-0.92;84.45
76102;SHT30;64830;46.910;6.354;2024-01-10T01:30:30;-0.95;84.31
76102;SHT30;64830;46.910;6.354;2024-01-10T01:32:56;-0.93;84.42
76102;SHT30;64830;46.910;6.354;2024-01-10T01:35:21;-0.97;84.49
76102;SHT30;64830;46.910;6.354;2024-01-10T01:37:48;-0.96;84.52
76102;SHT30;64830;46.910;6.354;2024-01-10T01:40:13;-0.93;84.74
76102;SHT30;64830;46.910;6.354;2024-01-10T01:42:39;-0.92;84.73
76102;SHT30;64830;46.910;6.354;2024-01-10T01:45:04;-0.86;84.71
76102;SHT30;64830;46.910;6.354;2024-01-10T01:47:30;-0.89;84.69
76102;SHT30;64830;46.910;6.354;2024-01-10T01:49:56;-0.89;84.64
76102;SHT30;64830;46.910;6.354;2024-01-10T01:52:21;-0.88;84.58
76102;SHT30;64830;46.910;6.354;2024-01-10T01:54:47;-0.85;84.51
76102;SHT30;64830;46.910;6.354;2024-01-10T01:57:13;-0.85;84.48
76102;SHT30;64830;46.910;6.354;2024-01-10T01:59:38;-0.82;84.51
76102;SHT30;64830;46.910;6.354;2024-01-10T02:02:05;-0.79;84.70
76102;SHT30;64830;46.910;6.354;2024-01-10T02:04:31;-0.77;84.85
76102;SHT30;64830;46.910;6.354;2024-01-10T02:06:57;-0.74;84.98
76102;SHT30;64830;46.910;6.354;2024-01-10T02:09:22;-0.69;84.96
76102;SHT30;64830;46.910;6.354;2024-01-10T02:11:48;-0.67;85.02
76102;SHT30;64830;46.910;6.354;2024-01-10T02:14:14;-0.67;85.00
76102;SHT30;64830;46.910;6.354;2024-01-10T02:16:40;-0.65;84.74
76102;SHT30;64830;46.910;6.354;2024-01-10T02:19:22;-0.64;84.65
76102;SHT30;64830;46.910;6.354;2024-01-10T02:21:48;-0.60;84.70
76102;SHT30;64830;46.910;6.354;2024-01-10T02:24:13;-0.61;84.71
76102;SHT30;64830;46.910;6.354;2024-01-10T02:26:40;-0.58;84.71
76102;SHT30;64830;46.910;6.354;2024-01-10T02:29:05;-0.57;84.80
76102;SHT30;64830;46.910;6.354;2024-01-10T02:31:31;-0.54;84.89
76102;SHT30;64830;46.910;6.354;2024-01-10T02:33:56;-0.54;84.93
76102;SHT30;64830;46.910;6.354;2024-01-10T02:36:21;-0.53;84.88
76102;SHT30;64830;46.910;6.354;2024-01-10T02:38:47;-0.53;85.01
76102;SHT30;64830;46.910;6.354;2024-01-10T02:41:13;-0.51;84.93
76102;SHT30;64830;46.910;6.354;2024-01-10T02:43:38;-0.50;84.84
76102;SHT30;64830;46.910;6.354;2024-01-10T02:46:04;-0.50;84.84
76102;SHT30;64830;46.910;6.354;2024-01-10T02:48:29;-0.47;84.82
76102;SHT30;64830;46.910;6.354;2024-01-10T02:50:55;-0.44;84.78
76102;SHT30;64830;46.910;6.354;2024-01-10T02:53:21;-0.47;84.67
76102;SHT30;64830;46.910;6.354;2024-01-10T02:55:46;-0.43;84.65
76102;SHT30;64830;46.910;6.354;2024-01-10T02:58:13;-0.45;84.62
76102;SHT30;64830;46.910;6.354;2024-01-10T03:00:38;-0.44;84.86
76102;SHT30;64830;46.910;6.354;2024-01-10T03:03:04;-0.43;85.03
76102;SHT30;64830;46.910;6.354;2024-01-10T03:05:29;-0.43;85.06
76102;SHT30;64830;46.910;6.354;2024-01-10T03:07:55;-0.44;85.07
76102;SHT30;64830;46.910;6.354;2024-01-10T03:10:20;-0.45;85.15
76102;SHT30;64830;46.910;6.354;2024-01-10T03:12:45;-0.45;85.17
76102;SHT30;64830;46.910;6.354;2024-01-10T03:15:11;-0.45;85.29
76102;SHT30;64830;46.910;6.354;2024-01-10T03:17:36;-0.44;85.51
76102;SHT30;64830;46.910;6.354;2024-01-10T03:20:02;-0.41;85.67
76102;SHT30;64830;46.910;6.354;2024-01-10T03:22:30;-0.38;85.91
76102;SHT30;64830;46.910;6.354;2024-01-10T03:24:55;-0.33;85.91
76102;SHT30;64830;46.910;6.354;2024-01-10T03:27:21;-0.33;85.90
76102;SHT30;64830;46.910;6.354;2024-01-10T03:29:46;-0.27;85.67
76102;SHT30;64830;46.910;6.354;2024-01-10T03:32:12;-0.24;85.58
76102;SHT30;64830;46.910;6.354;2024-01-10T03:34:37;-0.19;85.57
76102;SHT30;64830;46.910;6.354;2024-01-10T03:37:02;-0.17;85.53
76102;SHT30;64830;46.910;6.354;2024-01-10T03:39:28;-0.13;85.59
76102;SHT30;64830;46.910;6.354;2024-01-10T03:41:53;-0.09;85.56
76102;SHT30;64830;46.910;6.354;2024-01-10T03:44:19;-0.03;85.48
76102;SHT30;64830;46.910;6.354;2024-01-10T03:46:44;-0.01;85.35
76102;SHT30;64830;46.910;6.354;2024-01-10T03:49:11;0.04;85.22
76102;SHT30;64830;46.910;6.354;2024-01-10T03:51:36;0.06;85.19
76102;SHT30;64830;46.910;6.354;2024-01-10T03:54:02;0.09;85.14
76102;SHT30;64830;46.910;6.354;2024-01-10T03:56:28;0.09;85.17
76102;SHT30;64830;46.910;6.354;2024-01-10T03:58:54;0.11;84.97
76102;SHT30;64830;46.910;6.354;2024-01-10T04:01:22;0.05;84.68
76102;SHT30;64830;46.910;6.354;2024-01-10T04:03:48;0.04;84.67
76102;SHT30;64830;46.910;6.354;2024-01-10T04:06:14;0.04;84.75
76102;SHT30;64830;46.910;6.354;2024-01-10T04:08:39;0.04;84.74
76102;SHT30;64830;46.910;6.354;2024-01-10T04:11:05;0.02;84.74
76102;SHT30;64830;46.910;6.354;2024-01-10T04:13:30;-0.02;84.92
76102;SHT30;64830;46.910;6.354;2024-01-10T04:15:55;-0.02;85.00
76102;SHT30;64830;46.910;6.354;2024-01-10T04:18:21;-0.02;85.14
76102;SHT30;64830;46.910;6.354;2024-01-10T04:20:47;0.01;85.03
76102;SHT30;64830;46.910;6.354;2024-01-10T04:23:13;-0.01;85.15
76102;SHT30;64830;46.910;6.354;2024-01-10T04:25:38;-0.01;85.04
76102;SHT30;64830;46.910;6.354;2024-01-10T04:28:04;-0.01;85.13
76102;SHT30;64830;46.910;6.354;2024-01-10T04:30:30;0.02;84.97
76102;SHT30;64830;46.910;6.354;2024-01-10T04:32:55;0.05;84.82
76102;SHT30;64830;46.910;6.354;2024-01-10T04:35:20;0.06;84.68
76102;SHT30;64830;46.910;6.354;2024-01-10T04:37:46;0.06;84.58
76102;SHT30;64830;46.910;6.354;2024-01-10T04:40:11;0.12;84.50
76102;SHT30;64830;46.910;6.354;2024-01-10T04:42:37;0.09;84.59
76102;SHT30;64830;46.910;6.354;2024-01-10T04:45:02;0.11;84.49
76102;SHT30;64830;46.910;6.354;2024-01-10T04:47:28;0.12;84.61
76102;SHT30;64830;46.910;6.354;2024-01-10T04:49:53;0.13;84.60
76102;SHT30;64830;46.910;6.354;2024-01-10T04:52:19;0.15;84.54
76102;SHT30;64830;46.910;6.354;2024-01-10T04:54:45;0.16;84.65
76102;SHT30;64830;46.910;6.354;2024-01-10T04:57:11;0.19;84.65
76102;SHT30;64830;46.910;6.354;2024-01-10T04:59:36;0.22;84.57
76102;SHT30;64830;46.910;6.354;2024-01-10T05:02:02;0.23;84.50
76102;SHT30;64830;46.910;6.354;2024-01-10T05:04:27;0.23;84.37
76102;SHT30;64830;46.910;6.354;2024-01-10T05:06:53;0.23;84.47
76102;SHT30;64830;46.910;6.354;2024-01-10T05:09:18;0.25;84.29
76102;SHT30;64830;46.910;6.354;2024-01-10T05:11:44;0.25;84.40
76102;SHT30;64830;46.910;6.354;2024-01-10T05:14:12;0.28;84.26
76102;SHT30;64830;46.910;6.354;2024-01-10T05:16:37;0.25;84.37
76102;SHT30;64830;46.910;6.354;2024-01-10T05:19:03;0.25;84.24
76102;SHT30;64830;46.910;6.354;2024-01-10T05:21:30;0.22;84.11
76102;SHT30;64830;46.910;6.354;2024-01-10T05:23:56;0.23;84.32
76102;SHT30;64830;46.910;6.354;2024-01-10T05:26:21;0.23;84.26
76102;SHT30;64830;46.910;6.354;2024-01-10T05:28:46;0.26;84.24
76102;SHT30;64830;46.910;6.354;2024-01-10T05:31:12;0.25;83.97
76102;SHT30;64830;46.910;6.354;2024-01-10T05:33:37;0.22;83.99
76102;SHT30;64830;46.910;6.354;2024-01-10T05:36:03;0.22;84.04
76102;SHT30;64830;46.910;6.354;2024-01-10T05:38:28;0.23;84.20
76102;SHT30;64830;46.910;6.354;2024-01-10T05:40:53;0.25;84.28
76102;SHT30;64830;46.910;6.354;2024-01-10T05:43:19;0.25;84.30
76102;SHT30;64830;46.910;6.354;2024-01-10T05:45:44;0.25;84.34
76102;SHT30;64830;46.910;6.354;2024-01-10T05:48:10;0.22;84.44
76102;SHT30;64830;46.910;6.354;2024-01-10T05:50:35;0.21;84.54
76102;SHT30;64830;46.910;6.354;2024-01-10T05:53:00;0.22;84.57
76102;SHT30;64830;46.910;6.354;2024-01-10T05:55:27;0.23;84.81
76102;SHT30;64830;46.910;6.354;2024-01-10T05:57:52;0.25;84.83
76102;SHT30;64830;46.910;6.354;2024-01-10T06:00:18;0.28;84.70
76102;SHT30;64830;46.910;6.354;2024-01-10T06:02:43;0.29;84.62
76102;SHT30;64830;46.910;6.354;2024-01-10T06:05:09;0.32;84.46
76102;SHT30;64830;46.910;6.354;2024-01-10T06:07:39;0.32;84.45
76102;SHT30;64830;46.910;6.354;2024-01-10T06:10:06;0.32;84.34
76102;SHT30;64830;46.910;6.354;2024-01-10T06:12:32;0.32;84.26
76102;SHT30;64830;46.910;6.354;2024-01-10T06:14:57;0.33;84.25
76102;SHT30;64830;46.910;6.354;2024-01-10T06:17:23;0.35;84.21
76102;SHT30;64830;46.910;6.354;2024-01-10T06:19:49;0.35;84.35
76102;SHT30;64830;46.910;6.354;2024-01-10T06:22:14;0.33;84.42
76102;SHT30;64830;46.910;6.354;2024-01-10T06:24:41;0.35;84.44
76102;SHT30;64830;46.910;6.354;2024-01-10T06:27:07;0.36;84.52
76102;SHT30;64830;46.910;6.354;2024-01-10T06:29:34;0.39;84.48
76102;SHT30;64830;46.910;6.354;2024-01-10T06:31:59;0.39;84.48
76102;SHT30;64830;46.910;6.354;2024-01-10T06:34:29;0.39;84.48
76102;SHT30;64830;46.910;6.354;2024-01-10T06:36:54;0.40;84.53
76102;SHT30;64830;46.910;6.354;2024-01-10T06:39:20;0.40;84.48
76102;SHT30;64830;46.910;6.354;2024-01-10T06:41:48;0.40;84.23
76102;SHT30;64830;46.910;6.354;2024-01-10T06:44:14;0.39;84.02
76102;SHT30;64830;46.910;6.354;2024-01-10T06:46:39;0.39;84.34
76102;SHT30;64830;46.910;6.354;2024-01-10T06:49:05;0.38;84.42
76102;SHT30;64830;46.910;6.354;2024-01-10T06:51:33;0.35;84.69
76102;SHT30;64830;46.910;6.354;2024-01-10T06:53:58;0.36;85.10
76102;SHT30;64830;46.910;6.354;2024-01-10T06:56:29;0.35;85.28
76102;SHT30;64830;46.910;6.354;2024-01-10T06:58:56;0.36;85.39
76102;SHT30;64830;46.910;6.354;2024-01-10T07:01:21;0.38;85.40
76102;SHT30;64830;46.910;6.354;2024-01-10T07:03:49;0.39;85.49
76102;SHT30;64830;46.910;6.354;2024-01-10T07:06:15;0.38;85.45
76102;SHT30;64830;46.910;6.354;2024-01-10T07:08:41;0.43;85.53
76102;SHT30;64830;46.910;6.354;2024-01-10T07:11:07;0.45;85.51
76102;SHT30;64830;46.910;6.354;2024-01-10T07:13:33;0.47;85.68
76102;SHT30;64830;46.910;6.354;2024-01-10T07:15:58;0.54;85.72
76102;SHT30;64830;46.910;6.354;2024-01-10T07:18:29;0.54;85.90
76102;SHT30;64830;46.910;6.354;2024-01-10T07:20:56;0.60;85.99
76102;SHT30;64830;46.910;6.354;2024-01-10T07:23:21;0.63;86.01
76102;SHT30;64830;46.910;6.354;2024-01-10T07:25:48;0.67;86.30
76102;SHT30;64830;46.910;6.354;2024-01-10T07:28:13;0.71;86.34
76102;SHT30;64830;46.910;6.354;2024-01-10T07:30:39;0.78;86.40
76102;SHT30;64830;46.910;6.354;2024-01-10T07:33:05;0.84;86.78
76102;SHT30;64830;46.910;6.354;2024-01-10T07:35:31;0.88;86.67
76102;SHT30;64830;46.910;6.354;2024-01-10T07:37:57;0.95;86.81
76102;SHT30;64830;46.910;6.354;2024-01-10T07:40:22;1.02;86.86
76102;SHT30;64830;46.910;6.354;2024-01-10T07:42:48;1.09;86.79
76102;SHT30;64830;46.910;6.354;2024-01-10T07:45:13;1.12;86.32
76102;SHT30;64830;46.910;6.354;2024-01-10T07:47:39;1.12;85.96
76102;SHT30;64830;46.910;6.354;2024-01-10T07:50:09;1.08;85.97
76102;SHT30;64830;46.910;6.354;2024-01-10T07:52:35;1.01;85.82
76102;SHT30;64830;46.910;6.354;2024-01-10T07:55:01;0.95;85.70
76102;SHT30;64830;46.910;6.354;2024-01-10T07:57:27;0.88;85.73
76102;SHT30;64830;46.910;6.354;2024-01-10T07:59:53;0.78;85.59
76102;SHT30;64830;46.910;6.354;2024-01-10T08:02:18;0.73;85.92
76102;SHT30;64830;46.910;6.354;2024-01-10T08:04:43;0.75;85.93
76102;SHT30;64830;46.910;6.354;2024-01-10T08:07:09;0.80;85.82
76102;SHT30;64830;46.910;6.354;2024-01-10T08:09:35;0.81;86.05
76102;SHT30;64830;46.910;6.354;2024-01-10T08:12:02;0.87;86.03
76102;SHT30;64830;46.910;6.354;2024-01-10T08:14:27;0.92;86.04
76102;SHT30;64830;46.910;6.354;2024-01-10T08:16:53;0.98;86.06
76102;SHT30;64830;46.910;6.354;2024-01-10T08:19:20;1.01;86.23
76102;SHT30;64830;46.910;6.354;2024-01-10T08:21:45;1.06;86.12
76102;SHT30;64830;46.910;6.354;2024-01-10T08:24:10;1.03;86.06
76102;SHT30;64830;46.910;6.354;2024-01-10T08:26:36;1.09;86.44
76102;SHT30;64830;46.910;6.354;2024-01-10T08:29:03;1.16;86.46
76102;SHT30;64830;46.910;6.354;2024-01-10T08:31:28;1.22;86.41
76102;SHT30;64830;46.910;6.354;2024-01-10T08:33:54;1.30;86.38
76102;SHT30;64830;46.910;6.354;2024-01-10T08:36:19;1.39;86.40
76102;SHT30;64830;46.910;6.354;2024-01-10T08:38:45;1.46;86.03
76102;SHT30;64830;46.910;6.354;2024-01-10T08:41:11;1.56;86.05
76102;SHT30;64830;46.910;6.354;2024-01-10T08:43:37;1.63;85.84
76102;SHT30;64830;46.910;6.354;2024-01-10T08:46:03;1.67;85.62
76102;SHT30;64830;46.910;6.354;2024-01-10T08:48:29;1.73;85.55
76102;SHT30;64830;46.910;6.354;2024-01-10T08:50:54;1.73;85.47
76102;SHT30;64830;46.910;6.354;2024-01-10T08:53:21;1.75;85.40
76102;SHT30;64830;46.910;6.354;2024-01-10T08:55:47;1.82;85.53
76102;SHT30;64830;46.910;6.354;2024-01-10T08:58:12;1.86;85.44
76102;SHT30;64830;46.910;6.354;2024-01-10T09:00:38;1.98;85.39
76102;SHT30;64830;46.910;6.354;2024-01-10T09:03:04;2.06;85.04
76102;SHT30;64830;46.910;6.354;2024-01-10T09:05:29;2.10;85.13
76102;SHT30;64830;46.910;6.354;2024-01-10T09:07:55;2.15;85.25
76102;SHT30;64830;46.910;6.354;2024-01-10T09:10:20;2.26;85.13
76102;SHT30;64830;46.910;6.354;2024-01-10T09:12:47;2.36;85.15
76102;SHT30;64830;46.910;6.354;2024-01-10T09:15:13;2.41;84.96
76102;SHT30;64830;46.910;6.354;2024-01-10T09:17:43;2.51;84.83
76102;SHT30;64830;46.910;6.354;2024-01-10T09:20:10;2.57;84.64
76102;SHT30;64830;46.910;6.354;2024-01-10T09:22:36;2.66;84.38
76102;SHT30;64830;46.910;6.354;2024-01-10T09:25:02;2.70;84.14
76102;SHT30;64830;46.910;6.354;2024-01-10T09:27:29;2.81;84.18
76102;SHT30;64830;46.910;6.354;2024-01-10T09:29:55;2.88;84.31
76102;SHT30;64830;46.910;6.354;2024-01-10T09:32:20;2.93;84.18
76102;SHT30;64830;46.910;6.354;2024-01-10T09:34:46;2.99;84.00
76102;SHT30;64830;46.910;6.354;2024-01-10T09:37:11;3.02;83.82
76102;SHT30;64830;46.910;6.354;2024-01-10T09:39:36;3.05;83.97
76102;SHT30;64830;46.910;6.354;2024-01-10T09:42:02;3.08;83.77
76102;SHT30;64830;46.910;6.354;2024-01-10T09:44:28;3.08;83.77
76102;SHT30;64830;46.910;6.354;2024-01-10T09:46:54;3.10;83.68
76102;SHT30;64830;46.910;6.354;2024-01-10T09:49:21;3.13;83.44
76102;SHT30;64830;46.910;6.354;2024-01-10T09:51:50;3.17;83.50
76102;SHT30;64830;46.910;6.354;2024-01-10T09:54:19;3.20;83.56
76102;SHT30;64830;46.910;6.354;2024-01-10T09:56:45;3.22;82.99
76102;SHT30;64830;46.910;6.354;2024-01-10T09:59:12;3.23;82.74
76102;SHT30;64830;46.910;6.354;2024-01-10T10:01:38;3.23;82.44
76102;SHT30;64830;46.910;6.354;2024-01-10T10:04:07;3.23;81.86
76102;SHT30;64830;46.910;6.354;2024-01-10T10:06:34;3.22;82.16
76102;SHT30;64830;46.910;6.354;2024-01-10T10:09:01;3.24;82.29
76102;SHT30;64830;46.910;6.354;2024-01-10T10:11:26;3.23;82.20
76102;SHT30;64830;46.910;6.354;2024-01-10T10:13:52;3.23;82.27
76102;SHT30;64830;46.910;6.354;2024-01-10T10:16:25;3.22;82.06
76102;SHT30;64830;46.910;6.354;2024-01-10T10:18:51;3.15;82.10
76102;SHT30;64830;46.910;6.354;2024-01-10T10:21:24;3.15;82.67
76102;SHT30;64830;46.910;6.354;2024-01-10T10:24:01;3.13;82.24
76102;SHT30;64830;46.910;6.354;2024-01-10T10:26:27;3.10;82.48
76102;SHT30;64830;46.910;6.354;2024-01-10T10:28:54;3.13;82.62
76102;SHT30;64830;46.910;6.354;2024-01-10T10:31:21;3.13;82.43
76102;SHT30;64830;46.910;6.354;2024-01-10T10:33:49;3.15;82.38
76102;SHT30;64830;46.910;6.354;2024-01-10T10:36:16;3.10;82.06
76102;SHT30;64830;46.910;6.354;2024-01-10T10:38:42;3.09;82.42
76102;SHT30;64830;46.910;6.354;2024-01-10T10:41:07;3.10;82.63
76102;SHT30;64830;46.910;6.354;2024-01-10T10:43:37;3.12;82.90
76102;SHT30;64830;46.910;6.354;2024-01-10T10:46:07;3.15;82.77
76102;SHT30;64830;46.910;6.354;2024-01-10T10:48:33;3.20;82.69
76102;SHT30;64830;46.910;6.354;2024-01-10T10:51:05;3.27;83.01
76102;SHT30;64830;46.910;6.354;2024-01-10T10:53:33;3.31;83.22
76102;SHT30;64830;46.910;6.354;2024-01-10T10:56:00;3.41;83.28
76102;SHT30;64830;46.910;6.354;2024-01-10T10:58:25;3.51;83.25
76102;SHT30;64830;46.910;6.354;2024-01-10T11:00:53;3.61;83.27
76102;SHT30;64830;46.910;6.354;2024-01-10T11:03:20;3.71;83.31
76102;SHT30;64830;46.910;6.354;2024-01-10T11:05:46;3.81;82.81
76102;SHT30;64830;46.910;6.354;2024-01-10T11:08:15;3.89;82.85
76102;SHT30;64830;46.910;6.354;2024-01-10T11:10:43;3.99;82.75
76102;SHT30;64830;46.910;6.354;2024-01-10T11:13:41;4.09;82.09
76102;SHT30;64830;46.910;6.354;2024-01-10T11:24:49;4.11;81.85
76102;SHT30;64830;46.910;6.354;2024-01-10T11:27:15;4.13;81.74
76102;SHT30;64830;46.910;6.354;2024-01-10T11:29:45;4.11;81.72
76102;SHT30;64830;46.910;6.354;2024-01-10T11:32:18;4.11;81.79
76102;SHT30;64830;46.910;6.354;2024-01-10T11:35:19;4.11;81.97
76102;SHT30;64830;46.910;6.354;2024-01-10T11:37:47;4.19;82.22
76102;SHT30;64830;46.910;6.354;2024-01-10T11:40:15;4.26;82.04
76102;SHT30;64830;46.910;6.354;2024-01-10T11:42:51;4.34;81.89
76102;SHT30;64830;46.910;6.354;2024-01-10T11:48:00;4.41;81.47
76102;SHT30;64830;46.910;6.354;2024-01-10T11:50:26;4.45;81.67
76102;SHT30;64830;46.910;6.354;2024-01-10T11:52:53;4.54;81.50
76102;SHT30;64830;46.910;6.354;2024-01-10T11:55:47;4.60;81.24
76102;SHT30;64830;46.910;6.354;2024-01-10T11:58:13;4.65;81.49
76102;SHT30;64830;46.910;6.354;2024-01-10T12:00:40;4.67;81.22
76102;SHT30;64830;46.910;6.354;2024-01-10T12:03:07;4.64;81.02
76102;SHT30;64830;46.910;6.354;2024-01-10T12:05:34;4.65;81.12
76102;SHT30;64830;46.910;6.354;2024-01-10T12:08:00;4.67;81.31
76102;SHT30;64830;46.910;6.354;2024-01-10T12:10:26;4.73;81.39
76102;SHT30;64830;46.910;6.354;2024-01-10T12:12:52;4.73;80.79
76102;SHT30;64830;46.910;6.354;2024-01-10T12:15:20;4.73;80.94
76102;SHT30;64830;46.910;6.354;2024-01-10T12:17:46;4.73;81.10
76102;SHT30;64830;46.910;6.354;2024-01-10T12:20:11;4.75;81.08
76102;SHT30;64830;46.910;6.354;2024-01-10T12:22:37;4.79;80.60
76102;SHT30;64830;46.910;6.354;2024-01-10T12:25:06;4.81;80.42
76102;SHT30;64830;46.910;6.354;2024-01-10T12:27:31;4.75;80.31
76102;SHT30;64830;46.910;6.354;2024-01-10T12:30:00;4.76;80.87
76102;SHT30;64830;46.910;6.354;2024-01-10T12:32:28;4.78;80.88
76102;SHT30;64830;46.910;6.354;2024-01-10T12:35:03;4.73;80.61
76102;SHT30;64830;46.910;6.354;2024-01-10T12:37:30;4.68;80.98
76102;SHT30;64830;46.910;6.354;2024-01-10T12:39:56;4.60;80.98
76102;SHT30;64830;46.910;6.354;2024-01-10T12:42:21;4.64;81.44
76102;SHT30;64830;46.910;6.354;2024-01-10T12:44:47;4.62;81.14
76102;SHT30;64830;46.910;6.354;2024-01-10T12:47:20;4.62;81.21
76102;SHT30;64830;46.910;6.354;2024-01-10T12:49:46;4.61;80.99
76102;SHT30;64830;46.910;6.354;2024-01-10T12:52:12;4.50;81.21
76102;SHT30;64830;46.910;6.354;2024-01-10T12:54:39;4.51;81.76
76102;SHT30;64830;46.910;6.354;2024-01-10T12:57:04;4.55;81.30
76102;SHT30;64830;46.910;6.354;2024-01-10T12:59:30;4.45;81.33
76102;SHT30;64830;46.910;6.354;2024-01-10T13:01:55;4.38;81.68
76102;SHT30;64830;46.910;6.354;2024-01-10T13:04:22;4.32;81.80
76102;SHT30;64830;46.910;6.354;2024-01-10T13:06:47;4.32;81.87
76102;SHT30;64830;46.910;6.354;2024-01-10T13:09:13;4.43;82.36
76102;SHT30;64830;46.910;6.354;2024-01-10T13:11:38;4.60;82.08
76102;SHT30;64830;46.910;6.354;2024-01-10T13:14:04;4.71;81.82
76102;SHT30;64830;46.910;6.354;2024-01-10T13:16:29;4.78;81.46
76102;SHT30;64830;46.910;6.354;2024-01-10T13:18:56;4.73;81.22
76102;SHT30;64830;46.910;6.354;2024-01-10T13:21:22;4.68;81.37
76102;SHT30;64830;46.910;6.354;2024-01-10T13:23:48;4.65;81.54
76102;SHT30;64830;46.910;6.354;2024-01-10T13:26:13;4.67;81.36
76102;SHT30;64830;46.910;6.354;2024-01-10T13:28:38;4.62;81.55
76102;SHT30;64830;46.910;6.354;2024-01-10T13:31:05;4.60;81.42
76102;SHT30;64830;46.910;6.354;2024-01-10T13:33:31;4.58;81.73
76102;SHT30;64830;46.910;6.354;2024-01-10T13:35:56;4.57;81.73
76102;SHT30;64830;46.910;6.354;2024-01-10T13:38:22;4.60;81.59
76102;SHT30;64830;46.910;6.354;2024-01-10T13:40:49;4.61;81.47
76102;SHT30;64830;46.910;6.354;2024-01-10T13:43:15;4.60;81.57
76102;SHT30;64830;46.910;6.354;2024-01-10T13:45:41;4.61;81.43
76102;SHT30;64830;46.910;6.354;2024-01-10T13:48:06;4.67;81.77
76102;SHT30;64830;46.910;6.354;2024-01-10T13:50:31;4.69;81.32
76102;SHT30;64830;46.910;6.354;2024-01-10T13:52:58;4.73;81.71
76102;SHT30;64830;46.910;6.354;2024-01-10T13:55:23;4.81;81.56
76102;SHT30;64830;46.910;6.354;2024-01-10T13:57:50;4.89;81.61
76102;SHT30;64830;46.910;6.354;2024-01-10T14:00:18;4.96;81.68
76102;SHT30;64830;46.910;6.354;2024-01-10T14:02:44;5.09;81.58
76102;SHT30;64830;46.910;6.354;2024-01-10T14:05:09;5.13;81.10
76102;SHT30;64830;46.910;6.354;2024-01-10T14:07:35;5.13;80.52
76102;SHT30;64830;46.910;6.354;2024-01-10T14:10:01;5.09;80.46
76102;SHT30;64830;46.910;6.354;2024-01-10T14:12:28;5.00;80.36
76102;SHT30;64830;46.910;6.354;2024-01-10T14:14:54;4.93;80.27
76102;SHT30;64830;46.910;6.354;2024-01-10T14:17:20;4.88;80.57
76102;SHT30;64830;46.910;6.354;2024-01-10T14:19:47;4.89;80.69
76102;SHT30;64830;46.910;6.354;2024-01-10T14:22:15;4.90;80.64
76102;SHT30;64830;46.910;6.354;2024-01-10T14:24:42;4.90;80.74
76102;SHT30;64830;46.910;6.354;2024-01-10T14:27:08;4.92;80.55
76102;SHT30;64830;46.910;6.354;2024-01-10T14:29:34;4.92;80.57
76102;SHT30;64830;46.910;6.354;2024-01-10T14:31:59;4.93;80.54
76102;SHT30;64830;46.910;6.354;2024-01-10T14:34:25;4.89;80.57
76102;SHT30;64830;46.910;6.354;2024-01-10T14:36:50;4.85;80.56
76102;SHT30;64830;46.910;6.354;2024-01-10T14:39:15;4.85;80.58
76102;SHT30;64830;46.910;6.354;2024-01-10T14:41:41;4.81;80.54
76102;SHT30;64830;46.910;6.354;2024-01-10T14:44:06;4.78;80.32
76102;SHT30;64830;46.910;6.354;2024-01-10T14:46:32;4.71;80.31
76102;SHT30;64830;46.910;6.354;2024-01-10T14:48:57;4.64;80.27
76102;SHT30;64830;46.910;6.354;2024-01-10T14:51:23;4.57;80.36
76102;SHT30;64830;46.910;6.354;2024-01-10T14:53:48;4.50;80.38
76102;SHT30;64830;46.910;6.354;2024-01-10T14:56:14;4.44;80.59
76102;SHT30;64830;46.910;6.354;2024-01-10T14:58:39;4.41;80.73
76102;SHT30;64830;46.910;6.354;2024-01-10T15:01:11;4.37;81.02
76102;SHT30;64830;46.910;6.354;2024-01-10T15:03:37;4.32;80.89
76102;SHT30;64830;46.910;6.354;2024-01-10T15:06:06;4.30;81.08
76102;SHT30;64830;46.910;6.354;2024-01-10T15:08:31;4.27;81.05
76102;SHT30;64830;46.910;6.354;2024-01-10T15:10:59;4.23;81.04
76102;SHT30;64830;46.910;6.354;2024-01-10T15:13:24;4.23;81.07
76102;SHT30;64830;46.910;6.354;2024-01-10T15:15:49;4.16;80.97
76102;SHT30;64830;46.910;6.354;2024-01-10T15:18:15;4.11;80.99
76102;SHT30;64830;46.910;6.354;2024-01-10T15:20:41;4.07;81.04
76102;SHT30;64830;46.910;6.354;2024-01-10T15:23:08;4.02;81.15
76102;SHT30;64830;46.910;6.354;2024-01-10T15:25:34;3.98;81.21
76102;SHT30;64830;46.910;6.354;2024-01-10T15:27:59;3.95;81.22
76102;SHT30;64830;46.910;6.354;2024-01-10T15:30:25;3.85;81.32
76102;SHT30;64830;46.910;6.354;2024-01-10T15:32:51;3.78;81.50
76102;SHT30;64830;46.910;6.354;2024-01-10T15:35:17;3.75;81.51
76102;SHT30;64830;46.910;6.354;2024-01-10T15:37:44;3.71;81.62
76102;SHT30;64830;46.910;6.354;2024-01-10T15:40:10;3.70;81.38
76102;SHT30;64830;46.910;6.354;2024-01-10T15:42:37;3.61;81.49
76102;SHT30;64830;46.910;6.354;2024-01-10T15:45:03;3.55;81.62
76102;SHT30;64830;46.910;6.354;2024-01-10T15:47:29;3.48;81.92